sensor_id;sensor_type;location;lat;lon;timestamp;pressure;altitude;pressure_sealevel;temperature;humidity
2036;BME280;23642;42.658;23.350;2022-07-23T00:01:59;55703.81;;;-146.31;57.29
2036;BME280;23642;42.658;23.350;2022-07-23T00:04:26;55672.81;;;-146.31;57.46
2036;BME280;23642;42.658;23.350;2022-07-23T00:06:53;55699.69;;;-146.31;57.76
2036;BME280;23642;42.658;23.350;2022-07-23T00:09:20;55689.34;;;-146.31;56.68
2036;BME280;23642;42.658;23.350;2022-07-23T00:11:46;55693.47;;;-146.31;57.16
2036;BME280;23642;42.658;23.350;2022-07-23T00:14:13;55681.09;;;-146.31;56.98
2036;BME280;23642;42.658;23.350;2022-07-23T00:16:40;55679.03;;;-146.31;57.38
2036;BME280;23642;42.658;23.350;2022-07-23T00:19:08;55695.53;;;-146.31;56.38
2036;BME280;23642;42.658;23.350;2022-07-23T00:21:35;55674.88;;;-146.31;55.62
2036;BME280;23642;42.658;23.350;2022-07-23T00:24:02;55674.88;;;-146.31;55.97
2036;BME280;23642;42.658;23.350;2022-07-23T00:26:29;55701.75;;;-146.31;56.14
2036;BME280;23642;42.658;23.350;2022-07-23T00:28:55;55687.28;;;-146.31;55.36
2036;BME280;23642;42.658;23.350;2022-07-23T00:31:22;55683.16;;;-146.31;53.28
2036;BME280;23642;42.658;23.350;2022-07-23T00:33:49;55674.88;;;-146.31;55.00
2036;BME280;23642;42.658;23.350;2022-07-23T00:36:17;55685.22;;;-146.31;56.01
2036;BME280;23642;42.658;23.350;2022-07-23T00:38:44;55674.88;;;-146.31;56.62
2036;BME280;23642;42.658;23.350;2022-07-23T00:41:10;55697.63;;;-146.31;56.51
2036;BME280;23642;42.658;23.350;2022-07-23T00:43:37;55701.75;;;-146.31;56.73
2036;BME280;23642;42.658;23.350;2022-07-23T00:46:04;55703.81;;;-146.31;56.03
2036;BME280;23642;42.658;23.350;2022-07-23T00:48:31;55714.13;;;-146.31;56.77
2036;BME280;23642;42.658;23.350;2022-07-23T00:50:58;55712.06;;;-146.31;56.76
2036;BME280;23642;42.658;23.350;2022-07-23T00:53:26;55707.94;;;-146.31;57.86
2036;BME280;23642;42.658;23.350;2022-07-23T00:55:53;55724.47;;;-146.31;58.40
2036;BME280;23642;42.658;23.350;2022-07-23T00:58:20;55718.28;;;-146.31;59.08
2036;BME280;23642;42.658;23.350;2022-07-23T01:00:47;55728.59;;;-146.31;59.67
2036;BME280;23642;42.658;23.350;2022-07-23T01:03:14;55730.66;;;-146.31;59.86
2036;BME280;23642;42.658;23.350;2022-07-23T01:05:40;55724.47;;;-146.31;60.42
2036;BME280;23642;42.658;23.350;2022-07-23T01:08:07;55716.19;;;-146.31;60.70
2036;BME280;23642;42.658;23.350;2022-07-23T01:10:35;55707.94;;;-146.31;60.40
2036;BME280;23642;42.658;23.350;2022-07-23T01:13:04;55707.94;;;-146.31;60.44
2036;BME280;23642;42.658;23.350;2022-07-23T01:15:31;55707.94;;;-146.31;60.74
2036;BME280;23642;42.658;23.350;2022-07-23T01:17:58;55712.06;;;-146.31;60.75
2036;BME280;23642;42.658;23.350;2022-07-23T01:20:25;55703.81;;;-146.31;60.79
2036;BME280;23642;42.658;23.350;2022-07-23T01:22:53;55695.53;;;-146.31;61.13
2036;BME280;23642;42.658;23.350;2022-07-23T01:25:21;55728.59;;;-146.31;61.13
2036;BME280;23642;42.658;23.350;2022-07-23T01:27:48;55720.34;;;-146.31;61.62
2036;BME280;23642;42.658;23.350;2022-07-23T01:30:15;55716.19;;;-146.31;61.46
2036;BME280;23642;42.658;23.350;2022-07-23T01:32:41;55716.19;;;-146.31;62.17
2036;BME280;23642;42.658;23.350;2022-07-23T01:35:09;55707.94;;;-146.31;62.10
2036;BME280;23642;42.658;23.350;2022-07-23T01:37:36;55695.53;;;-146.31;62.65
2036;BME280;23642;42.658;23.350;2022-07-23T01:40:05;55687.28;;;-146.31;62.88
2036;BME280;23642;42.658;23.350;2022-07-23T01:42:33;55699.69;;;-146.31;63.18
2036;BME280;23642;42.658;23.350;2022-07-23T01:45:02;55695.53;;;-146.31;63.06
2036;BME280;23642;42.658;23.350;2022-07-23T01:47:29;55691.41;;;-146.31;63.57
2036;BME280;23642;42.658;23.350;2022-07-23T01:49:56;55672.81;;;-146.31;63.88
2036;BME280;23642;42.658;23.350;2022-07-23T01:52:22;55650.09;;;-146.31;63.79
2036;BME280;23642;42.658;23.350;2022-07-23T01:54:49;55670.75;;;-146.31;64.10
2036;BME280;23642;42.658;23.350;2022-07-23T01:57:17;55654.22;;;-146.31;63.92
2036;BME280;23642;42.658;23.350;2022-07-23T01:59:44;55652.16;;;-146.31;64.68
2036;BME280;23642;42.658;23.350;2022-07-23T02:02:11;55670.75;;;-146.31;64.78
2036;BME280;23642;42.658;23.350;2022-07-23T02:04:37;55635.66;;;-146.31;64.41
2036;BME280;23642;42.658;23.350;2022-07-23T02:07:05;55629.44;;;-146.31;63.90
2036;BME280;23642;42.658;23.350;2022-07-23T02:09:31;55641.84;;;-146.31;63.86
2036;BME280;23642;42.658;23.350;2022-07-23T02:11:58;55629.44;;;-146.31;63.86
2036;BME280;23642;42.658;23.350;2022-07-23T02:14:29;55658.38;;;-146.31;64.10
2036;BME280;23642;42.658;23.350;2022-07-23T02:16:56;55641.84;;;-146.31;64.42
2036;BME280;23642;42.658;23.350;2022-07-23T02:19:22;55648.03;;;-146.31;63.65
2036;BME280;23642;42.658;23.350;2022-07-23T02:21:49;55621.19;;;-146.31;64.08
2036;BME280;23642;42.658;23.350;2022-07-23T02:24:16;55637.72;;;-146.31;63.73
2036;BME280;23642;42.658;23.350;2022-07-23T02:26:43;55666.63;;;-146.31;63.62
2036;BME280;23642;42.658;23.350;2022-07-23T02:29:10;55625.31;;;-146.31;63.35
2036;BME280;23642;42.658;23.350;2022-07-23T02:31:39;55662.50;;;-146.31;63.13
2036;BME280;23642;42.658;23.350;2022-07-23T02:34:05;55610.84;;;-146.31;62.08
2036;BME280;23642;42.658;23.350;2022-07-23T02:36:33;55629.44;;;-146.31;63.14
2036;BME280;23642;42.658;23.350;2022-07-23T02:38:59;55654.22;;;-146.31;63.55
2036;BME280;23642;42.658;23.350;2022-07-23T02:41:26;55666.63;;;-146.31;63.52
2036;BME280;23642;42.658;23.350;2022-07-23T02:43:53;55643.91;;;-146.31;63.49
2036;BME280;23642;42.658;23.350;2022-07-23T02:46:19;55662.50;;;-146.31;63.78
2036;BME280;23642;42.658;23.350;2022-07-23T02:48:47;55658.38;;;-146.31;63.38
2036;BME280;23642;42.658;23.350;2022-07-23T02:51:14;55681.09;;;-146.31;63.33
2036;BME280;23642;42.658;23.350;2022-07-23T02:53:41;55679.03;;;-146.31;63.44
2036;BME280;23642;42.658;23.350;2022-07-23T02:56:08;55662.50;;;-146.31;63.43
2036;BME280;23642;42.658;23.350;2022-07-23T02:58:35;55691.41;;;-146.31;63.68
2036;BME280;23642;42.658;23.350;2022-07-23T03:01:02;55674.88;;;-146.31;63.52
2036;BME280;23642;42.658;23.350;2022-07-23T03:03:29;55674.88;;;-146.31;62.80
2036;BME280;23642;42.658;23.350;2022-07-23T03:05:57;55666.63;;;-146.31;61.85
2036;BME280;23642;42.658;23.350;2022-07-23T03:08:24;55674.88;;;-146.31;62.28
2036;BME280;23642;42.658;23.350;2022-07-23T03:10:50;55668.69;;;-146.31;62.23
2036;BME280;23642;42.658;23.350;2022-07-23T03:13:17;55660.44;;;-146.31;62.15
2036;BME280;23642;42.658;23.350;2022-07-23T03:15:44;55654.22;;;-146.31;62.13
2036;BME280;23642;42.658;23.350;2022-07-23T03:18:11;55656.31;;;-146.31;61.60
2036;BME280;23642;42.658;23.350;2022-07-23T03:20:38;55650.09;;;-146.31;62.04
2036;BME280;23642;42.658;23.350;2022-07-23T03:23:06;55689.34;;;-146.31;62.06
2036;BME280;23642;42.658;23.350;2022-07-23T03:25:32;55674.88;;;-146.31;62.15
2036;BME280;23642;42.658;23.350;2022-07-23T03:27:59;55679.03;;;-146.31;61.69
2036;BME280;23642;42.658;23.350;2022-07-23T03:30:26;55662.50;;;-146.31;59.29
2036;BME280;23642;42.658;23.350;2022-07-23T03:32:53;55656.31;;;-146.31;59.30
2036;BME280;23642;42.658;23.350;2022-07-23T03:35:20;55617.06;;;-146.31;60.58
2036;BME280;23642;42.658;23.350;2022-07-23T03:37:47;55600.53;;;-146.31;61.88
2036;BME280;23642;42.658;23.350;2022-07-23T03:40:15;55600.53;;;-146.31;62.33
2036;BME280;23642;42.658;23.350;2022-07-23T03:42:42;55584.00;;;-146.31;62.60
2036;BME280;23642;42.658;23.350;2022-07-23T03:45:11;55553.03;;;-146.31;62.60
2036;BME280;23642;42.658;23.350;2022-07-23T03:47:39;55569.53;;;-146.31;62.90
2036;BME280;23642;42.658;23.350;2022-07-23T03:50:06;55575.75;;;-146.31;63.27
2036;BME280;23642;42.658;23.350;2022-07-23T03:52:33;55534.44;;;-146.31;63.26
2036;BME280;23642;42.658;23.350;2022-07-23T03:55:00;55538.56;;;-146.31;63.10
2036;BME280;23642;42.658;23.350;2022-07-23T03:57:29;55538.56;;;-146.31;62.91
2036;BME280;23642;42.658;23.350;2022-07-23T03:59:56;55536.50;;;-146.31;63.11
2036;BME280;23642;42.658;23.350;2022-07-23T04:02:23;55530.31;;;-146.31;62.93
2036;BME280;23642;42.658;23.350;2022-07-23T04:04:50;55538.56;;;-146.31;61.87
2036;BME280;23642;42.658;23.350;2022-07-23T04:07:17;55538.56;;;-146.31;61.98
2036;BME280;23642;42.658;23.350;2022-07-23T04:09:44;55538.56;;;-146.31;61.28
2036;BME280;23642;42.658;23.350;2022-07-23T04:12:11;55519.97;;;-146.31;60.92
2036;BME280;23642;42.658;23.350;2022-07-23T04:14:39;55517.91;;;-146.31;60.83
2036;BME280;23642;42.658;23.350;2022-07-23T04:17:06;55497.25;;;-146.31;60.56
2036;BME280;23642;42.658;23.350;2022-07-23T04:19:33;55517.91;;;-146.31;60.74
2036;BME280;23642;42.658;23.350;2022-07-23T04:22:01;55507.59;;;-146.31;60.61
2036;BME280;23642;42.658;23.350;2022-07-23T04:24:28;55519.97;;;-146.31;59.36
2036;BME280;23642;42.658;23.350;2022-07-23T04:26:55;55503.44;;;-146.31;59.27
2036;BME280;23642;42.658;23.350;2022-07-23T04:29:22;55489.00;;;-146.31;58.38
2036;BME280;23642;42.658;23.350;2022-07-23T04:31:50;55517.91;;;-146.31;58.27
2036;BME280;23642;42.658;23.350;2022-07-23T04:34:17;55484.88;;;-146.31;58.66
2036;BME280;23642;42.658;23.350;2022-07-23T04:36:44;55470.41;;;-146.31;58.41
2036;BME280;23642;42.658;23.350;2022-07-23T04:39:11;55495.19;;;-146.31;57.53
2036;BME280;23642;42.658;23.350;2022-07-23T04:41:37;55476.59;;;-146.31;57.87
2036;BME280;23642;42.658;23.350;2022-07-23T04:44:04;55480.72;;;-146.31;57.58
2036;BME280;23642;42.658;23.350;2022-07-23T04:46:31;55468.34;;;-146.31;57.59
2036;BME280;23642;42.658;23.350;2022-07-23T04:48:59;55464.22;;;-146.31;56.73
2036;BME280;23642;42.658;23.350;2022-07-23T04:51:26;55464.22;;;-146.31;57.84
2036;BME280;23642;42.658;23.350;2022-07-23T04:53:54;55445.63;;;-146.31;57.13
2036;BME280;23642;42.658;23.350;2022-07-23T04:56:21;55455.94;;;-146.31;56.26
2036;BME280;23642;42.658;23.350;2022-07-23T04:58:48;55476.59;;;-146.31;57.16
2036;BME280;23642;42.658;23.350;2022-07-23T05:01:15;55482.78;;;-146.31;57.48
2036;BME280;23642;42.658;23.350;2022-07-23T05:03:42;55484.88;;;-146.31;56.96
2036;BME280;23642;42.658;23.350;2022-07-23T05:06:10;55439.41;;;-146.31;55.91
2036;BME280;23642;42.658;23.350;2022-07-23T05:08:37;55449.75;;;-146.31;55.49
2036;BME280;23642;42.658;23.350;2022-07-23T05:11:03;55453.88;;;-146.31;55.63
2036;BME280;23642;42.658;23.350;2022-07-23T05:13:30;55418.78;;;-146.31;55.29
2036;BME280;23642;42.658;23.350;2022-07-23T05:15:57;55418.78;;;-146.31;54.43
2036;BME280;23642;42.658;23.350;2022-07-23T05:18:24;55406.38;;;-146.31;54.16
2036;BME280;23642;42.658;23.350;2022-07-23T05:20:50;55418.78;;;-146.31;54.33
2036;BME280;23642;42.658;23.350;2022-07-23T05:23:18;55360.94;;;-146.31;53.34
2036;BME280;23642;42.658;23.350;2022-07-23T05:25:45;55377.47;;;-146.31;52.52
2036;BME280;23642;42.658;23.350;2022-07-23T05:28:12;55332.03;;;-146.31;52.78
2036;BME280;23642;42.658;23.350;2022-07-23T05:30:39;55371.25;;;-146.31;52.72
2036;BME280;23642;42.658;23.350;2022-07-23T05:33:05;55352.66;;;-146.31;52.16
2036;BME280;23642;42.658;23.350;2022-07-23T05:35:33;55342.34;;;-146.31;52.16
2036;BME280;23642;42.658;23.350;2022-07-23T05:37:59;55319.63;;;-146.31;51.73
2036;BME280;23642;42.658;23.350;2022-07-23T05:40:28;55290.72;;;-146.31;50.77
2036;BME280;23642;42.658;23.350;2022-07-23T05:42:55;55305.16;;;-146.31;50.63
2036;BME280;23642;42.658;23.350;2022-07-23T05:45:22;55303.09;;;-146.31;50.38
2036;BME280;23642;42.658;23.350;2022-07-23T05:47:49;55305.16;;;-146.31;49.17
2036;BME280;23642;42.658;23.350;2022-07-23T05:50:16;55296.91;;;-146.31;49.52
2036;BME280;23642;42.658;23.350;2022-07-23T05:52:43;55286.59;;;-146.31;49.05
2036;BME280;23642;42.658;23.350;2022-07-23T05:55:11;55298.97;;;-146.31;48.04
2036;BME280;23642;42.658;23.350;2022-07-23T05:57:40;55313.44;;;-146.31;47.59
2036;BME280;23642;42.658;23.350;2022-07-23T06:00:08;55268.00;;;-146.31;48.06
2036;BME280;23642;42.658;23.350;2022-07-23T06:02:37;55276.25;;;-146.31;46.31
2036;BME280;23642;42.658;23.350;2022-07-23T06:05:04;55245.28;;;-146.31;46.76
2036;BME280;23642;42.658;23.350;2022-07-23T06:07:32;55301.03;;;-146.31;45.40
2036;BME280;23642;42.658;23.350;2022-07-23T06:09:59;55280.38;;;-146.31;45.44
2036;BME280;23642;42.658;23.350;2022-07-23T06:12:26;55298.97;;;-146.31;45.48
2036;BME280;23642;42.658;23.350;2022-07-23T06:14:54;55303.09;;;-146.31;45.50
2036;BME280;23642;42.658;23.350;2022-07-23T06:17:21;55276.25;;;-146.31;45.91
2036;BME280;23642;42.658;23.350;2022-07-23T06:19:48;55265.94;;;-146.31;46.16
2036;BME280;23642;42.658;23.350;2022-07-23T06:22:14;55286.59;;;-146.31;45.48
2036;BME280;23642;42.658;23.350;2022-07-23T06:24:41;55222.56;;;-146.31;45.06
2036;BME280;23642;42.658;23.350;2022-07-23T06:27:08;55226.69;;;-146.31;44.23
2036;BME280;23642;42.658;23.350;2022-07-23T06:29:34;55234.94;;;-146.31;43.46
2036;BME280;23642;42.658;23.350;2022-07-23T06:32:03;55317.56;;;-146.31;42.43
2036;BME280;23642;42.658;23.350;2022-07-23T06:34:30;55268.00;;;-146.31;42.54
2036;BME280;23642;42.658;23.350;2022-07-23T06:36:56;55286.59;;;-146.31;41.47
2036;BME280;23642;42.658;23.350;2022-07-23T06:39:23;55234.94;;;-146.31;42.02
2036;BME280;23642;42.658;23.350;2022-07-23T06:41:50;55263.88;;;-146.31;40.78
2036;BME280;23642;42.658;23.350;2022-07-23T06:44:17;55265.94;;;-146.31;40.37
2036;BME280;23642;42.658;23.350;2022-07-23T06:46:44;55274.19;;;-146.31;40.08
2036;BME280;23642;42.658;23.350;2022-07-23T06:49:12;55226.69;;;-146.31;40.18
2036;BME280;23642;42.658;23.350;2022-07-23T06:51:39;55303.09;;;-146.31;40.27
2036;BME280;23642;42.658;23.350;2022-07-23T06:54:06;55344.41;;;-146.31;40.32
2036;BME280;23642;42.658;23.350;2022-07-23T06:56:32;55296.91;;;-146.31;40.05
2036;BME280;23642;42.658;23.350;2022-07-23T06:58:59;55218.44;;;-146.31;39.84
2036;BME280;23642;42.658;23.350;2022-07-23T07:01:28;55212.22;;;-146.31;38.92
2036;BME280;23642;42.658;23.350;2022-07-23T07:03:57;55189.50;;;-146.31;39.25
2036;BME280;23642;42.658;23.350;2022-07-23T07:06:25;55243.22;;;-146.31;39.54
2036;BME280;23642;42.658;23.350;2022-07-23T07:08:52;55212.22;;;-146.31;39.32
2036;BME280;23642;42.658;23.350;2022-07-23T07:11:19;55212.22;;;-146.31;38.89
2036;BME280;23642;42.658;23.350;2022-07-23T07:13:45;55224.63;;;-146.31;39.16
2036;BME280;23642;42.658;23.350;2022-07-23T07:16:12;55175.06;;;-146.31;38.67
2036;BME280;23642;42.658;23.350;2022-07-23T07:18:39;55129.63;;;-146.31;39.00
2036;BME280;23642;42.658;23.350;2022-07-23T07:21:06;55125.50;;;-146.31;38.96
2036;BME280;23642;42.658;23.350;2022-07-23T07:23:34;55092.44;;;-146.31;38.27
2036;BME280;23642;42.658;23.350;2022-07-23T07:26:01;55088.31;;;-146.31;38.07
2036;BME280;23642;42.658;23.350;2022-07-23T07:28:27;55075.91;;;-146.31;37.67
2036;BME280;23642;42.658;23.350;2022-07-23T07:30:54;55067.66;;;-146.31;37.36
2036;BME280;23642;42.658;23.350;2022-07-23T07:33:21;55125.50;;;-146.31;37.10
2036;BME280;23642;42.658;23.350;2022-07-23T07:35:48;55067.66;;;-146.31;37.44
2036;BME280;23642;42.658;23.350;2022-07-23T07:38:15;55111.03;;;-146.31;36.77
2036;BME280;23642;42.658;23.350;2022-07-23T07:40:43;55131.69;;;-146.31;36.13
2036;BME280;23642;42.658;23.350;2022-07-23T07:43:10;55158.53;;;-146.31;36.68
2036;BME280;23642;42.658;23.350;2022-07-23T07:45:37;55135.81;;;-146.31;37.41
2036;BME280;23642;42.658;23.350;2022-07-23T07:48:04;55160.59;;;-146.31;37.09
2036;BME280;23642;42.658;23.350;2022-07-23T07:50:31;55170.94;;;-146.31;37.59
2036;BME280;23642;42.658;23.350;2022-07-23T07:52:58;55123.44;;;-146.31;36.42
2036;BME280;23642;42.658;23.350;2022-07-23T07:55:25;55104.84;;;-146.31;36.49
2036;BME280;23642;42.658;23.350;2022-07-23T07:57:54;55092.44;;;-146.31;36.48
2036;BME280;23642;42.658;23.350;2022-07-23T08:00:20;55059.41;;;-146.31;37.12
2036;BME280;23642;42.658;23.350;2022-07-23T08:02:49;55018.09;;;-146.31;36.64
2036;BME280;23642;42.658;23.350;2022-07-23T08:05:19;55009.84;;;-146.31;36.92
2036;BME280;23642;42.658;23.350;2022-07-23T08:07:47;55065.59;;;-146.31;35.51
2036;BME280;23642;42.658;23.350;2022-07-23T08:10:14;55057.34;;;-146.31;35.66
2036;BME280;23642;42.658;23.350;2022-07-23T08:12:43;55034.63;;;-146.31;35.74
2036;BME280;23642;42.658;23.350;2022-07-23T08:15:13;54985.06;;;-146.31;35.37
2036;BME280;23642;42.658;23.350;2022-07-23T08:17:40;54970.59;;;-146.31;36.04
2036;BME280;23642;42.658;23.350;2022-07-23T08:20:09;54972.66;;;-146.31;35.76
2036;BME280;23642;42.658;23.350;2022-07-23T08:22:43;54949.94;;;-146.31;35.97
2036;BME280;23642;42.658;23.350;2022-07-23T08:25:10;54985.06;;;-146.31;36.30
2036;BME280;23642;42.658;23.350;2022-07-23T08:27:37;54933.44;;;-146.31;35.89
2036;BME280;23642;42.658;23.350;2022-07-23T08:30:05;54954.06;;;-146.31;36.09
2036;BME280;23642;42.658;23.350;2022-07-23T08:32:47;54894.19;;;-146.31;36.63
2036;BME280;23642;42.658;23.350;2022-07-23T08:35:16;54985.06;;;-146.31;36.91
2036;BME280;23642;42.658;23.350;2022-07-23T08:37:42;54943.75;;;-146.31;36.49
2036;BME280;23642;42.658;23.350;2022-07-23T08:40:31;54960.28;;;-146.31;36.37
2036;BME280;23642;42.658;23.350;2022-07-23T08:42:59;54956.16;;;-146.31;36.31
2036;BME280;23642;42.658;23.350;2022-07-23T08:45:27;54925.16;;;-146.31;36.52
2036;BME280;23642;42.658;23.350;2022-07-23T08:47:56;54964.41;;;-146.31;36.03
2036;BME280;23642;42.658;23.350;2022-07-23T08:50:24;54923.09;;;-146.31;35.99
2036;BME280;23642;42.658;23.350;2022-07-23T08:52:52;54960.28;;;-146.31;35.62
2036;BME280;23642;42.658;23.350;2022-07-23T08:55:21;54962.34;;;-146.31;35.67
2036;BME280;23642;42.658;23.350;2022-07-23T08:57:50;54910.72;;;-146.31;35.53
2036;BME280;23642;42.658;23.350;2022-07-23T09:00:18;54925.16;;;-146.31;35.03
2036;BME280;23642;42.658;23.350;2022-07-23T09:02:46;54873.53;;;-146.31;34.47
2036;BME280;23642;42.658;23.350;2022-07-23T09:05:15;54894.19;;;-146.31;34.88
2036;BME280;23642;42.658;23.350;2022-07-23T09:08:12;54904.50;;;-146.31;34.67
2036;BME280;23642;42.658;23.350;2022-07-23T09:10:44;54927.22;;;-146.31;34.29
2036;BME280;23642;42.658;23.350;2022-07-23T09:13:35;54898.31;;;-146.31;34.06
2036;BME280;23642;42.658;23.350;2022-07-23T09:16:06;54842.56;;;-146.31;34.49
2036;BME280;23642;42.658;23.350;2022-07-23T09:18:36;54867.34;;;-146.31;33.62
2036;BME280;23642;42.658;23.350;2022-07-23T09:21:24;54871.47;;;-146.31;33.82
2036;BME280;23642;42.658;23.350;2022-07-23T09:23:56;54848.75;;;-146.31;32.43
2036;BME280;23642;42.658;23.350;2022-07-23T09:26:32;54894.19;;;-146.31;32.77
2036;BME280;23642;42.658;23.350;2022-07-23T09:29:02;54797.13;;;-146.31;32.89
2036;BME280;23642;42.658;23.350;2022-07-23T09:31:41;54832.25;;;-146.31;30.95
2036;BME280;23642;42.658;23.350;2022-07-23T09:34:14;54960.28;;;-146.31;30.54
2036;BME280;23642;42.658;23.350;2022-07-23T09:36:43;55020.16;;;-146.31;29.20
2036;BME280;23642;42.658;23.350;2022-07-23T09:39:16;54997.44;;;-146.31;29.86
2036;BME280;23642;42.658;23.350;2022-07-23T09:41:48;55024.28;;;-146.31;29.62
2036;BME280;23642;42.658;23.350;2022-07-23T09:44:16;54976.78;;;-146.31;29.72
2036;BME280;23642;42.658;23.350;2022-07-23T09:46:43;55059.41;;;-146.31;28.90
2036;BME280;23642;42.658;23.350;2022-07-23T09:49:13;55123.44;;;-146.31;27.81
2036;BME280;23642;42.658;23.350;2022-07-23T09:51:54;55164.72;;;-146.31;27.78
2036;BME280;23642;42.658;23.350;2022-07-23T09:54:27;55096.56;;;-146.31;28.99
2036;BME280;23642;42.658;23.350;2022-07-23T09:56:57;55051.13;;;-146.31;28.56
2036;BME280;23642;42.658;23.350;2022-07-23T09:59:27;54941.69;;;-146.31;28.30
2036;BME280;23642;42.658;23.350;2022-07-23T10:01:58;54904.50;;;-146.31;28.42
2036;BME280;23642;42.658;23.350;2022-07-23T10:04:27;54916.91;;;-146.31;28.88
2036;BME280;23642;42.658;23.350;2022-07-23T10:06:57;54877.66;;;-146.31;28.91
2036;BME280;23642;42.658;23.350;2022-07-23T10:09:26;54840.50;;;-146.31;28.35
2036;BME280;23642;42.658;23.350;2022-07-23T10:11:57;54954.06;;;-146.31;27.50
2036;BME280;23642;42.658;23.350;2022-07-23T10:14:29;54947.88;;;-146.31;28.10
2036;BME280;23642;42.658;23.350;2022-07-23T10:16:58;54958.22;;;-146.31;27.65
2036;BME280;23642;42.658;23.350;2022-07-23T10:19:27;54912.78;;;-146.31;28.27
2036;BME280;23642;42.658;23.350;2022-07-23T10:21:59;54910.72;;;-146.31;27.79
2036;BME280;23642;42.658;23.350;2022-07-23T10:24:53;55057.34;;;-146.31;26.80
2036;BME280;23642;42.658;23.350;2022-07-23T10:27:42;55139.94;;;-146.31;26.48
2036;BME280;23642;42.658;23.350;2022-07-23T10:30:14;55020.16;;;-146.31;26.98
2036;BME280;23642;42.658;23.350;2022-07-23T10:32:46;55042.88;;;-146.31;26.34
2036;BME280;23642;42.658;23.350;2022-07-23T10:35:25;55028.44;;;-146.31;26.45
2036;BME280;23642;42.658;23.350;2022-07-23T10:37:57;54943.75;;;-146.31;27.22
2036;BME280;23642;42.658;23.350;2022-07-23T10:40:27;54995.38;;;-146.31;26.76
2036;BME280;23642;42.658;23.350;2022-07-23T10:42:58;54964.41;;;-146.31;26.60
2036;BME280;23642;42.658;23.350;2022-07-23T10:45:30;55005.72;;;-146.31;26.37
2036;BME280;23642;42.658;23.350;2022-07-23T10:48:13;55088.31;;;-146.31;25.41
2036;BME280;23642;42.658;23.350;2022-07-23T10:50:41;55096.56;;;-146.31;25.58
2036;BME280;23642;42.658;23.350;2022-07-23T10:53:18;55237.00;;;-146.31;24.62
2036;BME280;23642;42.658;23.350;2022-07-23T10:55:51;55193.66;;;-146.31;24.75
2036;BME280;23642;42.658;23.350;2022-07-23T10:58:25;55175.06;;;-146.31;25.09
2036;BME280;23642;42.658;23.350;2022-07-23T11:01:31;55131.69;;;-146.31;25.20
2036;BME280;23642;42.658;23.350;2022-07-23T11:03:58;55257.66;;;-146.31;23.92
2036;BME280;23642;42.658;23.350;2022-07-23T11:07:08;55298.97;;;-146.31;23.76
2036;BME280;23642;42.658;23.350;2022-07-23T11:09:42;55237.00;;;-146.31;24.06
2036;BME280;23642;42.658;23.350;2022-07-23T11:12:38;55265.94;;;-146.31;23.72
2036;BME280;23642;42.658;23.350;2022-07-23T11:15:08;55270.06;;;-146.31;24.15
2036;BME280;23642;42.658;23.350;2022-07-23T11:17:39;55177.13;;;-146.31;24.53
2036;BME280;23642;42.658;23.350;2022-07-23T11:20:16;55150.28;;;-146.31;24.63
2036;BME280;23642;42.658;23.350;2022-07-23T11:22:48;55170.94;;;-146.31;23.68
2036;BME280;23642;42.658;23.350;2022-07-23T11:25:33;55307.22;;;-146.31;22.99
2036;BME280;23642;42.658;23.350;2022-07-23T11:28:24;55325.81;;;-146.31;23.19
2036;BME280;23642;42.658;23.350;2022-07-23T11:30:52;55276.25;;;-146.31;23.34
2036;BME280;23642;42.658;23.350;2022-07-23T11:33:21;55243.22;;;-146.31;23.82
2036;BME280;23642;42.658;23.350;2022-07-23T11:36:02;55416.69;;;-146.31;22.81
2036;BME280;23642;42.658;23.350;2022-07-23T11:38:31;55431.16;;;-146.31;22.62
2036;BME280;23642;42.658;23.350;2022-07-23T11:41:00;55383.66;;;-146.31;22.95
2036;BME280;23642;42.658;23.350;2022-07-23T11:43:27;55468.34;;;-146.31;22.49
2036;BME280;23642;42.658;23.350;2022-07-23T11:45:57;55522.03;;;-146.31;22.08
2036;BME280;23642;42.658;23.350;2022-07-23T11:48:26;55588.13;;;-146.31;22.00
2036;BME280;23642;42.658;23.350;2022-07-23T11:50:54;55695.53;;;-146.31;21.08
2036;BME280;23642;42.658;23.350;2022-07-23T11:53:22;55759.59;;;-146.31;20.18
2036;BME280;23642;42.658;23.350;2022-07-23T11:55:49;55805.03;;;-146.31;20.12
2036;BME280;23642;42.658;23.350;2022-07-23T11:58:18;55617.06;;;-146.31;21.46
2036;BME280;23642;42.658;23.350;2022-07-23T12:00:45;55604.66;;;-146.31;21.29
2036;BME280;23642;42.658;23.350;2022-07-23T12:03:12;55517.91;;;-146.31;21.62
2036;BME280;23642;42.658;23.350;2022-07-23T12:05:39;55586.06;;;-146.31;21.13
2036;BME280;23642;42.658;23.350;2022-07-23T12:08:08;55571.63;;;-146.31;21.13
2036;BME280;23642;42.658;23.350;2022-07-23T12:10:37;55559.22;;;-146.31;21.53
2036;BME280;23642;42.658;23.350;2022-07-23T12:13:05;55573.69;;;-146.31;21.63
2036;BME280;23642;42.658;23.350;2022-07-23T12:15:36;55588.13;;;-146.31;21.45
2036;BME280;23642;42.658;23.350;2022-07-23T12:18:05;55581.94;;;-146.31;21.37
2036;BME280;23642;42.658;23.350;2022-07-23T12:20:34;55654.22;;;-146.31;21.15
2036;BME280;23642;42.658;23.350;2022-07-23T12:23:04;55604.66;;;-146.31;21.25
2036;BME280;23642;42.658;23.350;2022-07-23T12:25:33;55728.59;;;-146.31;20.66
2036;BME280;23642;42.658;23.350;2022-07-23T12:28:03;55718.28;;;-146.31;20.85
2036;BME280;23642;42.658;23.350;2022-07-23T12:30:32;55726.53;;;-146.31;20.55
2036;BME280;23642;42.658;23.350;2022-07-23T12:33:01;55720.34;;;-146.31;20.27
2036;BME280;23642;42.658;23.350;2022-07-23T12:35:34;55703.81;;;-146.31;20.53
2036;BME280;23642;42.658;23.350;2022-07-23T12:38:04;55672.81;;;-146.31;21.00
2036;BME280;23642;42.658;23.350;2022-07-23T12:40:33;55732.72;;;-146.31;20.14
2036;BME280;23642;42.658;23.350;2022-07-23T12:43:03;55701.75;;;-146.31;20.71
2036;BME280;23642;42.658;23.350;2022-07-23T12:45:43;55807.09;;;-146.31;20.23
2036;BME280;23642;42.658;23.350;2022-07-23T12:48:21;55805.03;;;-146.31;20.16
2036;BME280;23642;42.658;23.350;2022-07-23T12:50:54;55736.84;;;-146.31;20.10